Margarita — WDD7032 — position and weather

sailwx.info

Track history (hours):
 
Tides and Currents Weather Stations Pressure Air Temp Water Temp Dewpoint Dewpoint Depression Visibility Wind Speed Wind Dir Waves Ship Positions

Margarita

Owner: LAULETTA, JOHN F, NORTH PALM BEACH, FL. More information available from US FCC via Universal Licensing System and Coast Guard Vessel Documentation Center.

Last reported at 2017-Sep-18 19:44 UTC. Time now 2017-Dec-13 07:21 UTC.
Position N 26°54' W 080°05'.
Warning: this ship's position is months out of date.

Length 22 m.

Type: Pleasure craft. MMSI: 367181030.

Date/timePositionNaut miles runAvg speedWind from/ knotsBaromVisibWave heightAir tempDewpointWater temp
2017-Sep-18 19:44N 26°54' W 080°05'2 9.9
2017-Sep-18 19:30N 26°56' W 080°05'4 7.3
2017-Sep-18 19:00N 26°60' W 080°05'304 9.6
2017-Sep-17 11:30N 32°01' W 080°48'7 0.6
2017-Sep-16 22:24N 32°08' W 080°49'0 0.1
2017-Sep-16 21:58N 32°08' W 080°49'714.1
2017-Sep-16 21:30N 32°02' W 080°49'918.4
2017-Sep-16 20:59N 32°05' W 080°38'244 9.5
2017-Sep-15 19:16N 34°37' W 076°49'518.1
2017-Sep-15 19:00N 34°39' W 076°44'5 9.4
2017-Sep-15 18:30N 34°43' W 076°42'713.1
2017-Sep-15 18:00N 34°50' W 076°41'  
Track history (hours):
 
Tides and Currents Weather Stations Pressure Air Temp Water Temp Dewpoint Dewpoint Depression Visibility Wind Speed Wind Dir Waves Ship Positions

Margarita

Owner: LAULETTA, JOHN F, NORTH PALM BEACH, FL. More information available from US FCC via Universal Licensing System and Coast Guard Vessel Documentation Center.

Last reported at 2017-Sep-18 19:44 UTC. Time now 2017-Dec-13 07:21 UTC.
Position N 26°54' W 080°05'.
Warning: this ship's position is months out of date.

Length 22 m.

Type: Pleasure craft. MMSI: 367181030.

Date/timePositionNaut miles runAvg speedWind from/ knotsBaromVisibWave heightAir tempDewpointWater temp
2017-Sep-18 19:44N 26°54' W 080°05'2 9.9
2017-Sep-18 19:30N 26°56' W 080°05'4 7.3
2017-Sep-18 19:00N 26°60' W 080°05'304 9.6
2017-Sep-17 11:30N 32°01' W 080°48'7 0.6
2017-Sep-16 22:24N 32°08' W 080°49'0 0.1
2017-Sep-16 21:58N 32°08' W 080°49'714.1
2017-Sep-16 21:30N 32°02' W 080°49'918.4
2017-Sep-16 20:59N 32°05' W 080°38'244 9.5
2017-Sep-15 19:16N 34°37' W 076°49'518.1
2017-Sep-15 19:00N 34°39' W 076°44'5 9.4
2017-Sep-15 18:30N 34°43' W 076°42'713.1
2017-Sep-15 18:00N 34°50' W 076°41'  

Dump ship's entire track history